sensor_id;sensor_type;location;lat;lon;timestamp;P1;durP1;ratioP1;P2;durP2;ratioP2
36457;SDS011;22480;50.546;12.292;2022-10-16T00:01:14;2.10;;;0.82;;
36457;SDS011;22480;50.546;12.292;2022-10-16T00:03:42;2.17;;;0.80;;
36457;SDS011;22480;50.546;12.292;2022-10-16T00:06:09;0.70;;;0.57;;
36457;SDS011;22480;50.546;12.292;2022-10-16T00:08:35;1.63;;;0.60;;
36457;SDS011;22480;50.546;12.292;2022-10-16T00:11:03;2.60;;;0.90;;
36457;SDS011;22480;50.546;12.292;2022-10-16T00:13:30;2.15;;;0.50;;
36457;SDS011;22480;50.546;12.292;2022-10-16T00:15:57;2.30;;;0.80;;
36457;SDS011;22480;50.546;12.292;2022-10-16T00:18:25;0.95;;;0.45;;
36457;SDS011;22480;50.546;12.292;2022-10-16T00:20:51;0.57;;;0.57;;
36457;SDS011;22480;50.546;12.292;2022-10-16T00:23:18;2.05;;;0.50;;
36457;SDS011;22480;50.546;12.292;2022-10-16T00:25:44;0.77;;;0.50;;
36457;SDS011;22480;50.546;12.292;2022-10-16T00:28:10;1.40;;;0.60;;
36457;SDS011;22480;50.546;12.292;2022-10-16T00:30:38;0.80;;;0.63;;
36457;SDS011;22480;50.546;12.292;2022-10-16T00:33:04;2.92;;;0.70;;
36457;SDS011;22480;50.546;12.292;2022-10-16T00:35:30;2.08;;;0.80;;
36457;SDS011;22480;50.546;12.292;2022-10-16T00:37:56;2.13;;;0.60;;
36457;SDS011;22480;50.546;12.292;2022-10-16T00:40:22;0.80;;;0.80;;
36457;SDS011;22480;50.546;12.292;2022-10-16T00:42:47;1.80;;;0.90;;
36457;SDS011;22480;50.546;12.292;2022-10-16T00:45:13;2.20;;;0.60;;
36457;SDS011;22480;50.546;12.292;2022-10-16T00:47:42;1.08;;;0.80;;
36457;SDS011;22480;50.546;12.292;2022-10-16T00:50:24;2.00;;;0.80;;
36457;SDS011;22480;50.546;12.292;2022-10-16T00:52:56;0.95;;;0.70;;
36457;SDS011;22480;50.546;12.292;2022-10-16T00:55:24;2.13;;;0.88;;
36457;SDS011;22480;50.546;12.292;2022-10-16T00:57:50;2.03;;;0.70;;
36457;SDS011;22480;50.546;12.292;2022-10-16T01:00:19;2.72;;;1.13;;
36457;SDS011;22480;50.546;12.292;2022-10-16T01:02:53;2.65;;;1.60;;
36457;SDS011;22480;50.546;12.292;2022-10-16T01:05:21;2.28;;;1.10;;
36457;SDS011;22480;50.546;12.292;2022-10-16T01:13:15;1.63;;;0.98;;
36457;SDS011;22480;50.546;12.292;2022-10-16T01:18:14;0.98;;;0.90;;
36457;SDS011;22480;50.546;12.292;2022-10-16T01:20:53;2.65;;;1.00;;
36457;SDS011;22480;50.546;12.292;2022-10-16T01:26:02;2.17;;;0.98;;
36457;SDS011;22480;50.546;12.292;2022-10-16T01:28:47;0.80;;;0.80;;
36457;SDS011;22480;50.546;12.292;2022-10-16T01:31:19;3.03;;;0.73;;
36457;SDS011;22480;50.546;12.292;2022-10-16T01:33:51;2.30;;;1.35;;
36457;SDS011;22480;50.546;12.292;2022-10-16T01:36:28;1.10;;;0.90;;
36457;SDS011;22480;50.546;12.292;2022-10-16T01:39:01;1.40;;;0.77;;
36457;SDS011;22480;50.546;12.292;2022-10-16T01:41:30;2.30;;;0.98;;
36457;SDS011;22480;50.546;12.292;2022-10-16T01:46:48;2.80;;;0.90;;
36457;SDS011;22480;50.546;12.292;2022-10-16T01:49:17;2.42;;;0.73;;
36457;SDS011;22480;50.546;12.292;2022-10-16T01:51:44;2.25;;;0.90;;
36457;SDS011;22480;50.546;12.292;2022-10-16T01:54:14;6.00;;;0.90;;
36457;SDS011;22480;50.546;12.292;2022-10-16T01:56:43;1.73;;;1.00;;
36457;SDS011;22480;50.546;12.292;2022-10-16T01:59:10;1.30;;;0.80;;
36457;SDS011;22480;50.546;12.292;2022-10-16T02:01:40;2.57;;;1.00;;
36457;SDS011;22480;50.546;12.292;2022-10-16T02:04:11;2.70;;;1.25;;
36457;SDS011;22480;50.546;12.292;2022-10-16T02:06:42;1.02;;;0.90;;
36457;SDS011;22480;50.546;12.292;2022-10-16T02:09:08;2.08;;;0.95;;
36457;SDS011;22480;50.546;12.292;2022-10-16T02:11:34;1.13;;;0.90;;
36457;SDS011;22480;50.546;12.292;2022-10-16T02:14:04;3.67;;;0.90;;
36457;SDS011;22480;50.546;12.292;2022-10-16T02:16:32;2.15;;;0.80;;
36457;SDS011;22480;50.546;12.292;2022-10-16T02:19:00;5.07;;;0.93;;
36457;SDS011;22480;50.546;12.292;2022-10-16T02:21:28;4.47;;;0.70;;
36457;SDS011;22480;50.546;12.292;2022-10-16T02:29:20;0.60;;;0.60;;
36457;SDS011;22480;50.546;12.292;2022-10-16T02:31:51;0.82;;;0.82;;
36457;SDS011;22480;50.546;12.292;2022-10-16T02:34:22;3.53;;;0.60;;
36457;SDS011;22480;50.546;12.292;2022-10-16T02:36:50;3.55;;;0.90;;
36457;SDS011;22480;50.546;12.292;2022-10-16T02:39:18;0.70;;;0.52;;
36457;SDS011;22480;50.546;12.292;2022-10-16T02:41:44;0.50;;;0.50;;
36457;SDS011;22480;50.546;12.292;2022-10-16T02:44:11;2.58;;;0.75;;
36457;SDS011;22480;50.546;12.292;2022-10-16T02:46:36;1.60;;;0.60;;
36457;SDS011;22480;50.546;12.292;2022-10-16T02:49:02;0.50;;;0.50;;
36457;SDS011;22480;50.546;12.292;2022-10-16T02:51:28;0.40;;;0.40;;
36457;SDS011;22480;50.546;12.292;2022-10-16T02:53:54;0.77;;;0.60;;
36457;SDS011;22480;50.546;12.292;2022-10-16T02:56:20;1.20;;;0.50;;
36457;SDS011;22480;50.546;12.292;2022-10-16T02:58:45;0.50;;;0.50;;
36457;SDS011;22480;50.546;12.292;2022-10-16T03:01:11;1.13;;;0.50;;
36457;SDS011;22480;50.546;12.292;2022-10-16T03:03:39;1.30;;;0.60;;
36457;SDS011;22480;50.546;12.292;2022-10-16T03:06:05;0.68;;;0.50;;
36457;SDS011;22480;50.546;12.292;2022-10-16T03:08:31;2.13;;;0.60;;
36457;SDS011;22480;50.546;12.292;2022-10-16T03:10:57;1.50;;;0.50;;
36457;SDS011;22480;50.546;12.292;2022-10-16T03:13:22;0.60;;;0.60;;
36457;SDS011;22480;50.546;12.292;2022-10-16T03:15:48;0.82;;;0.63;;
36457;SDS011;22480;50.546;12.292;2022-10-16T03:18:14;0.60;;;0.60;;
36457;SDS011;22480;50.546;12.292;2022-10-16T03:20:40;1.73;;;0.65;;
36457;SDS011;22480;50.546;12.292;2022-10-16T03:23:07;1.67;;;0.90;;
36457;SDS011;22480;50.546;12.292;2022-10-16T03:25:33;4.40;;;0.65;;
36457;SDS011;22480;50.546;12.292;2022-10-16T03:27:59;5.25;;;1.33;;
36457;SDS011;22480;50.546;12.292;2022-10-16T03:30:24;0.70;;;0.70;;
36457;SDS011;22480;50.546;12.292;2022-10-16T03:32:50;1.92;;;1.10;;
36457;SDS011;22480;50.546;12.292;2022-10-16T03:35:19;4.57;;;1.13;;
36457;SDS011;22480;50.546;12.292;2022-10-16T03:37:45;1.90;;;1.20;;
36457;SDS011;22480;50.546;12.292;2022-10-16T03:40:11;1.77;;;1.00;;
36457;SDS011;22480;50.546;12.292;2022-10-16T03:42:37;4.30;;;1.25;;
36457;SDS011;22480;50.546;12.292;2022-10-16T03:45:03;1.20;;;1.10;;
36457;SDS011;22480;50.546;12.292;2022-10-16T03:47:29;3.53;;;1.30;;
36457;SDS011;22480;50.546;12.292;2022-10-16T03:49:58;1.23;;;1.10;;
36457;SDS011;22480;50.546;12.292;2022-10-16T03:52:24;2.28;;;0.93;;
36457;SDS011;22480;50.546;12.292;2022-10-16T03:54:50;1.10;;;1.00;;
36457;SDS011;22480;50.546;12.292;2022-10-16T03:57:16;2.78;;;1.30;;
36457;SDS011;22480;50.546;12.292;2022-10-16T03:59:42;1.45;;;1.25;;
36457;SDS011;22480;50.546;12.292;2022-10-16T04:02:08;1.15;;;1.05;;
36457;SDS011;22480;50.546;12.292;2022-10-16T04:04:34;1.67;;;1.13;;
36457;SDS011;22480;50.546;12.292;2022-10-16T04:07:00;1.58;;;1.10;;
36457;SDS011;22480;50.546;12.292;2022-10-16T04:09:25;3.70;;;1.10;;
36457;SDS011;22480;50.546;12.292;2022-10-16T04:11:51;7.40;;;1.30;;
36457;SDS011;22480;50.546;12.292;2022-10-16T04:14:17;2.78;;;1.10;;
36457;SDS011;22480;50.546;12.292;2022-10-16T04:16:43;3.13;;;1.20;;
36457;SDS011;22480;50.546;12.292;2022-10-16T04:19:09;1.20;;;1.10;;
36457;SDS011;22480;50.546;12.292;2022-10-16T04:21:35;1.10;;;0.85;;
36457;SDS011;22480;50.546;12.292;2022-10-16T04:24:02;2.50;;;1.05;;
36457;SDS011;22480;50.546;12.292;2022-10-16T04:26:27;3.22;;;0.80;;
36457;SDS011;22480;50.546;12.292;2022-10-16T04:28:54;1.25;;;0.90;;
36457;SDS011;22480;50.546;12.292;2022-10-16T04:31:19;0.80;;;0.80;;
36457;SDS011;22480;50.546;12.292;2022-10-16T04:33:45;2.22;;;0.80;;
36457;SDS011;22480;50.546;12.292;2022-10-16T04:36:11;1.25;;;0.90;;
36457;SDS011;22480;50.546;12.292;2022-10-16T04:38:38;3.42;;;0.90;;
36457;SDS011;22480;50.546;12.292;2022-10-16T04:41:05;1.05;;;0.98;;
36457;SDS011;22480;50.546;12.292;2022-10-16T04:43:32;2.13;;;0.82;;
36457;SDS011;22480;50.546;12.292;2022-10-16T04:45:58;1.10;;;0.80;;
36457;SDS011;22480;50.546;12.292;2022-10-16T04:48:24;1.10;;;1.00;;
36457;SDS011;22480;50.546;12.292;2022-10-16T04:50:50;0.60;;;0.60;;
36457;SDS011;22480;50.546;12.292;2022-10-16T04:53:15;0.77;;;0.77;;
36457;SDS011;22480;50.546;12.292;2022-10-16T04:55:41;1.90;;;0.80;;
36457;SDS011;22480;50.546;12.292;2022-10-16T04:58:07;0.70;;;0.70;;
36457;SDS011;22480;50.546;12.292;2022-10-16T05:00:33;1.20;;;0.85;;
36457;SDS011;22480;50.546;12.292;2022-10-16T05:03:00;3.65;;;0.70;;
36457;SDS011;22480;50.546;12.292;2022-10-16T05:05:27;2.30;;;0.90;;
36457;SDS011;22480;50.546;12.292;2022-10-16T05:07:53;2.03;;;0.60;;
36457;SDS011;22480;50.546;12.292;2022-10-16T05:10:19;1.65;;;0.60;;
36457;SDS011;22480;50.546;12.292;2022-10-16T05:12:45;0.93;;;0.75;;
36457;SDS011;22480;50.546;12.292;2022-10-16T05:15:11;0.82;;;0.82;;
36457;SDS011;22480;50.546;12.292;2022-10-16T05:17:37;0.68;;;0.65;;
36457;SDS011;22480;50.546;12.292;2022-10-16T05:20:03;1.02;;;0.60;;
36457;SDS011;22480;50.546;12.292;2022-10-16T05:22:29;0.98;;;0.50;;
36457;SDS011;22480;50.546;12.292;2022-10-16T05:24:55;2.17;;;0.60;;
36457;SDS011;22480;50.546;12.292;2022-10-16T05:27:21;1.10;;;0.68;;
36457;SDS011;22480;50.546;12.292;2022-10-16T05:29:47;1.08;;;0.70;;
36457;SDS011;22480;50.546;12.292;2022-10-16T05:32:17;2.97;;;0.50;;
36457;SDS011;22480;50.546;12.292;2022-10-16T05:34:44;0.50;;;0.47;;
36457;SDS011;22480;50.546;12.292;2022-10-16T05:37:10;0.63;;;0.63;;
36457;SDS011;22480;50.546;12.292;2022-10-16T05:39:36;0.60;;;0.60;;
36457;SDS011;22480;50.546;12.292;2022-10-16T05:42:05;2.03;;;0.85;;
36457;SDS011;22480;50.546;12.292;2022-10-16T05:44:31;1.50;;;0.80;;
36457;SDS011;22480;50.546;12.292;2022-10-16T05:46:57;1.15;;;0.88;;
36457;SDS011;22480;50.546;12.292;2022-10-16T05:49:23;4.22;;;2.05;;
36457;SDS011;22480;50.546;12.292;2022-10-16T05:51:49;2.88;;;2.20;;
36457;SDS011;22480;50.546;12.292;2022-10-16T05:54:14;4.38;;;1.50;;
36457;SDS011;22480;50.546;12.292;2022-10-16T05:56:40;2.85;;;0.93;;
36457;SDS011;22480;50.546;12.292;2022-10-16T05:59:06;0.93;;;0.93;;
36457;SDS011;22480;50.546;12.292;2022-10-16T06:01:32;1.13;;;0.90;;
36457;SDS011;22480;50.546;12.292;2022-10-16T06:03:58;2.58;;;0.80;;
36457;SDS011;22480;50.546;12.292;2022-10-16T06:06:25;2.67;;;0.98;;
36457;SDS011;22480;50.546;12.292;2022-10-16T06:08:52;1.25;;;1.15;;
36457;SDS011;22480;50.546;12.292;2022-10-16T06:11:23;1.50;;;1.05;;
36457;SDS011;22480;50.546;12.292;2022-10-16T06:13:50;1.48;;;1.08;;
36457;SDS011;22480;50.546;12.292;2022-10-16T06:16:17;1.65;;;1.35;;
36457;SDS011;22480;50.546;12.292;2022-10-16T06:18:43;3.03;;;1.30;;
36457;SDS011;22480;50.546;12.292;2022-10-16T06:21:19;1.70;;;1.40;;
36457;SDS011;22480;50.546;12.292;2022-10-16T06:23:47;1.30;;;1.20;;
36457;SDS011;22480;50.546;12.292;2022-10-16T06:26:16;2.97;;;1.30;;
36457;SDS011;22480;50.546;12.292;2022-10-16T06:28:45;2.70;;;1.30;;
36457;SDS011;22480;50.546;12.292;2022-10-16T06:31:11;1.30;;;1.20;;
36457;SDS011;22480;50.546;12.292;2022-10-16T06:33:37;2.22;;;1.30;;
36457;SDS011;22480;50.546;12.292;2022-10-16T06:36:08;1.52;;;1.33;;
36457;SDS011;22480;50.546;12.292;2022-10-16T06:38:36;1.30;;;1.20;;
36457;SDS011;22480;50.546;12.292;2022-10-16T06:41:02;2.80;;;1.13;;
36457;SDS011;22480;50.546;12.292;2022-10-16T06:43:28;1.50;;;1.17;;
36457;SDS011;22480;50.546;12.292;2022-10-16T06:45:57;1.52;;;1.00;;
36457;SDS011;22480;50.546;12.292;2022-10-16T06:48:25;1.60;;;0.90;;
36457;SDS011;22480;50.546;12.292;2022-10-16T06:51:01;0.90;;;0.90;;
36457;SDS011;22480;50.546;12.292;2022-10-16T06:53:32;1.60;;;0.88;;
36457;SDS011;22480;50.546;12.292;2022-10-16T06:56:09;1.65;;;0.90;;
36457;SDS011;22480;50.546;12.292;2022-10-16T06:58:35;1.42;;;1.00;;
36457;SDS011;22480;50.546;12.292;2022-10-16T07:01:01;4.22;;;1.40;;
36457;SDS011;22480;50.546;12.292;2022-10-16T07:03:27;1.83;;;1.25;;
36457;SDS011;22480;50.546;12.292;2022-10-16T07:05:53;2.92;;;0.93;;
36457;SDS011;22480;50.546;12.292;2022-10-16T07:08:19;3.05;;;1.23;;
36457;SDS011;22480;50.546;12.292;2022-10-16T07:10:45;2.55;;;0.73;;
36457;SDS011;22480;50.546;12.292;2022-10-16T07:13:10;1.15;;;0.80;;
36457;SDS011;22480;50.546;12.292;2022-10-16T07:15:39;2.92;;;1.02;;
36457;SDS011;22480;50.546;12.292;2022-10-16T07:18:06;3.33;;;0.95;;
36457;SDS011;22480;50.546;12.292;2022-10-16T07:20:32;1.27;;;0.98;;
36457;SDS011;22480;50.546;12.292;2022-10-16T07:22:58;1.40;;;1.00;;
36457;SDS011;22480;50.546;12.292;2022-10-16T07:25:23;1.67;;;1.52;;
36457;SDS011;22480;50.546;12.292;2022-10-16T07:27:49;2.15;;;1.10;;
36457;SDS011;22480;50.546;12.292;2022-10-16T07:30:15;3.10;;;1.73;;
36457;SDS011;22480;50.546;12.292;2022-10-16T07:32:41;3.05;;;1.20;;
36457;SDS011;22480;50.546;12.292;2022-10-16T07:35:07;1.27;;;0.90;;
36457;SDS011;22480;50.546;12.292;2022-10-16T07:37:33;2.15;;;1.05;;
36457;SDS011;22480;50.546;12.292;2022-10-16T07:39:58;1.60;;;1.27;;
36457;SDS011;22480;50.546;12.292;2022-10-16T07:42:24;0.70;;;0.70;;
36457;SDS011;22480;50.546;12.292;2022-10-16T07:44:50;2.53;;;0.90;;
36457;SDS011;22480;50.546;12.292;2022-10-16T07:47:15;0.80;;;0.60;;
36457;SDS011;22480;50.546;12.292;2022-10-16T07:49:41;1.67;;;1.15;;
36457;SDS011;22480;50.546;12.292;2022-10-16T07:52:07;1.38;;;0.80;;
36457;SDS011;22480;50.546;12.292;2022-10-16T07:54:33;1.48;;;0.65;;
36457;SDS011;22480;50.546;12.292;2022-10-16T07:56:58;6.00;;;2.10;;
36457;SDS011;22480;50.546;12.292;2022-10-16T07:59:24;1.73;;;0.70;;
36457;SDS011;22480;50.546;12.292;2022-10-16T08:01:50;1.05;;;0.90;;
36457;SDS011;22480;50.546;12.292;2022-10-16T08:04:16;4.05;;;2.10;;
36457;SDS011;22480;50.546;12.292;2022-10-16T08:06:41;2.85;;;2.08;;
36457;SDS011;22480;50.546;12.292;2022-10-16T08:09:07;1.50;;;0.95;;
36457;SDS011;22480;50.546;12.292;2022-10-16T08:11:34;3.15;;;2.00;;
36457;SDS011;22480;50.546;12.292;2022-10-16T08:14:00;4.38;;;1.85;;
36457;SDS011;22480;50.546;12.292;2022-10-16T08:16:25;0.80;;;0.60;;
36457;SDS011;22480;50.546;12.292;2022-10-16T08:18:51;0.95;;;0.77;;
36457;SDS011;22480;50.546;12.292;2022-10-16T08:21:18;1.10;;;0.75;;
36457;SDS011;22480;50.546;12.292;2022-10-16T08:23:46;0.63;;;0.63;;
36457;SDS011;22480;50.546;12.292;2022-10-16T08:26:12;2.40;;;0.68;;
36457;SDS011;22480;50.546;12.292;2022-10-16T08:28:38;5.25;;;1.27;;
36457;SDS011;22480;50.546;12.292;2022-10-16T08:31:05;1.75;;;0.82;;
36457;SDS011;22480;50.546;12.292;2022-10-16T08:33:35;3.15;;;0.82;;
36457;SDS011;22480;50.546;12.292;2022-10-16T08:36:01;2.15;;;0.80;;
36457;SDS011;22480;50.546;12.292;2022-10-16T08:38:28;0.77;;;0.73;;
36457;SDS011;22480;50.546;12.292;2022-10-16T08:40:54;3.78;;;1.60;;
36457;SDS011;22480;50.546;12.292;2022-10-16T08:43:35;2.38;;;1.10;;
36457;SDS011;22480;50.546;12.292;2022-10-16T08:46:38;3.17;;;0.80;;
36457;SDS011;22480;50.546;12.292;2022-10-16T08:49:13;0.93;;;0.70;;
36457;SDS011;22480;50.546;12.292;2022-10-16T08:51:40;2.80;;;0.98;;
36457;SDS011;22480;50.546;12.292;2022-10-16T08:56:56;4.78;;;1.90;;
36457;SDS011;22480;50.546;12.292;2022-10-16T08:59:26;2.72;;;1.10;;
36457;SDS011;22480;50.546;12.292;2022-10-16T09:01:52;2.10;;;1.10;;
36457;SDS011;22480;50.546;12.292;2022-10-16T09:07:04;2.22;;;0.80;;
36457;SDS011;22480;50.546;12.292;2022-10-16T09:12:30;2.80;;;0.90;;
36457;SDS011;22480;50.546;12.292;2022-10-16T09:18:09;1.35;;;0.90;;
36457;SDS011;22480;50.546;12.292;2022-10-16T09:20:42;0.80;;;0.73;;
36457;SDS011;22480;50.546;12.292;2022-10-16T09:25:42;3.92;;;0.90;;
36457;SDS011;22480;50.546;12.292;2022-10-16T09:28:10;2.00;;;1.02;;
36457;SDS011;22480;50.546;12.292;2022-10-16T09:30:36;2.53;;;1.30;;
36457;SDS011;22480;50.546;12.292;2022-10-16T09:33:04;4.20;;;2.70;;
36457;SDS011;22480;50.546;12.292;2022-10-16T09:35:33;3.67;;;1.98;;
36457;SDS011;22480;50.546;12.292;2022-10-16T09:38:00;4.20;;;1.55;;
36457;SDS011;22480;50.546;12.292;2022-10-16T09:40:36;3.10;;;2.00;;
36457;SDS011;22480;50.546;12.292;2022-10-16T09:45:54;3.40;;;2.33;;
36457;SDS011;22480;50.546;12.292;2022-10-16T09:48:21;4.07;;;2.22;;
36457;SDS011;22480;50.546;12.292;2022-10-16T09:51:00;2.00;;;0.93;;
36457;SDS011;22480;50.546;12.292;2022-10-16T09:53:38;2.75;;;1.75;;
36457;SDS011;22480;50.546;12.292;2022-10-16T09:56:06;3.92;;;2.35;;
36457;SDS011;22480;50.546;12.292;2022-10-16T09:58:32;4.65;;;2.63;;
36457;SDS011;22480;50.546;12.292;2022-10-16T10:00:58;1.27;;;1.02;;
36457;SDS011;22480;50.546;12.292;2022-10-16T10:03:32;3.47;;;2.28;;
36457;SDS011;22480;50.546;12.292;2022-10-16T10:06:06;3.13;;;1.60;;
36457;SDS011;22480;50.546;12.292;2022-10-16T10:08:52;1.40;;;1.00;;
36457;SDS011;22480;50.546;12.292;2022-10-16T10:11:40;1.88;;;1.40;;
36457;SDS011;22480;50.546;12.292;2022-10-16T10:14:17;2.75;;;1.65;;
36457;SDS011;22480;50.546;12.292;2022-10-16T10:16:44;3.15;;;1.40;;
36457;SDS011;22480;50.546;12.292;2022-10-16T10:19:16;1.20;;;0.65;;
36457;SDS011;22480;50.546;12.292;2022-10-16T10:21:47;0.95;;;0.80;;
36457;SDS011;22480;50.546;12.292;2022-10-16T10:24:14;1.20;;;0.80;;
36457;SDS011;22480;50.546;12.292;2022-10-16T10:39:42;3.85;;;0.85;;
36457;SDS011;22480;50.546;12.292;2022-10-16T10:42:21;0.77;;;0.40;;
36457;SDS011;22480;50.546;12.292;2022-10-16T10:47:45;0.77;;;0.70;;
36457;SDS011;22480;50.546;12.292;2022-10-16T10:50:49;0.45;;;0.45;;
36457;SDS011;22480;50.546;12.292;2022-10-16T10:56:08;0.85;;;0.50;;
36457;SDS011;22480;50.546;12.292;2022-10-16T10:58:57;0.75;;;0.50;;
36457;SDS011;22480;50.546;12.292;2022-10-16T11:01:30;0.88;;;0.50;;
36457;SDS011;22480;50.546;12.292;2022-10-16T11:06:40;2.20;;;1.10;;
36457;SDS011;22480;50.546;12.292;2022-10-16T11:09:22;0.90;;;0.50;;
36457;SDS011;22480;50.546;12.292;2022-10-16T11:12:12;0.37;;;0.30;;
36457;SDS011;22480;50.546;12.292;2022-10-16T11:14:41;0.90;;;0.30;;
36457;SDS011;22480;50.546;12.292;2022-10-16T11:17:14;1.55;;;0.40;;
36457;SDS011;22480;50.546;12.292;2022-10-16T11:19:54;0.45;;;0.40;;
36457;SDS011;22480;50.546;12.292;2022-10-16T11:22:27;0.63;;;0.50;;
36457;SDS011;22480;50.546;12.292;2022-10-16T11:25:00;1.30;;;0.30;;
36457;SDS011;22480;50.546;12.292;2022-10-16T11:27:42;3.30;;;0.40;;
36457;SDS011;22480;50.546;12.292;2022-10-16T11:30:21;0.52;;;0.40;;
36457;SDS011;22480;50.546;12.292;2022-10-16T11:33:37;1.65;;;0.90;;
36457;SDS011;22480;50.546;12.292;2022-10-16T11:36:16;2.47;;;0.73;;
36457;SDS011;22480;50.546;12.292;2022-10-16T11:46:40;0.95;;;0.52;;
36457;SDS011;22480;50.546;12.292;2022-10-16T11:49:18;2.10;;;0.80;;
36457;SDS011;22480;50.546;12.292;2022-10-16T11:54:24;2.17;;;0.50;;
36457;SDS011;22480;50.546;12.292;2022-10-16T11:56:59;2.25;;;0.55;;
36457;SDS011;22480;50.546;12.292;2022-10-16T11:59:34;3.60;;;0.50;;
36457;SDS011;22480;50.546;12.292;2022-10-16T12:05:18;1.77;;;0.60;;
36457;SDS011;22480;50.546;12.292;2022-10-16T12:10:39;0.90;;;0.40;;
36457;SDS011;22480;50.546;12.292;2022-10-16T12:16:03;2.80;;;0.68;;
36457;SDS011;22480;50.546;12.292;2022-10-16T12:18:42;1.95;;;0.40;;
36457;SDS011;22480;50.546;12.292;2022-10-16T12:21:10;0.70;;;0.40;;
36457;SDS011;22480;50.546;12.292;2022-10-16T12:23:52;1.55;;;0.80;;
36457;SDS011;22480;50.546;12.292;2022-10-16T12:26:39;1.45;;;0.50;;
36457;SDS011;22480;50.546;12.292;2022-10-16T12:29:12;1.13;;;0.43;;
36457;SDS011;22480;50.546;12.292;2022-10-16T12:31:42;1.13;;;0.63;;
36457;SDS011;22480;50.546;12.292;2022-10-16T12:34:14;0.80;;;0.60;;
36457;SDS011;22480;50.546;12.292;2022-10-16T12:37:07;1.17;;;0.70;;
36457;SDS011;22480;50.546;12.292;2022-10-16T12:39:45;0.90;;;0.60;;
36457;SDS011;22480;50.546;12.292;2022-10-16T12:44:55;1.85;;;0.95;;
36457;SDS011;22480;50.546;12.292;2022-10-16T12:49:56;2.70;;;2.25;;
36457;SDS011;22480;50.546;12.292;2022-10-16T12:52:36;2.13;;;1.77;;
36457;SDS011;22480;50.546;12.292;2022-10-16T13:24:24;1.70;;;0.60;;
36457;SDS011;22480;50.546;12.292;2022-10-16T13:27:28;1.40;;;0.50;;
36457;SDS011;22480;50.546;12.292;2022-10-16T13:30:14;2.55;;;0.93;;
36457;SDS011;22480;50.546;12.292;2022-10-16T13:33:10;2.67;;;0.95;;
36457;SDS011;22480;50.546;12.292;2022-10-16T13:36:02;2.15;;;0.55;;
36457;SDS011;22480;50.546;12.292;2022-10-16T13:38:32;1.92;;;0.98;;
36457;SDS011;22480;50.546;12.292;2022-10-16T13:41:04;2.65;;;0.73;;
36457;SDS011;22480;50.546;12.292;2022-10-16T13:46:13;1.13;;;0.55;;
36457;SDS011;22480;50.546;12.292;2022-10-16T13:48:41;3.28;;;1.00;;
36457;SDS011;22480;50.546;12.292;2022-10-16T13:53:40;1.33;;;0.70;;
36457;SDS011;22480;50.546;12.292;2022-10-16T13:56:10;2.88;;;1.17;;
36457;SDS011;22480;50.546;12.292;2022-10-16T13:58:37;2.17;;;0.88;;
36457;SDS011;22480;50.546;12.292;2022-10-16T14:01:25;1.60;;;0.90;;
36457;SDS011;22480;50.546;12.292;2022-10-16T14:03:50;2.53;;;0.70;;
36457;SDS011;22480;50.546;12.292;2022-10-16T14:06:18;2.53;;;0.70;;
36457;SDS011;22480;50.546;12.292;2022-10-16T14:08:49;1.30;;;0.50;;
36457;SDS011;22480;50.546;12.292;2022-10-16T14:11:38;3.22;;;0.65;;
36457;SDS011;22480;50.546;12.292;2022-10-16T14:14:13;0.90;;;0.50;;
36457;SDS011;22480;50.546;12.292;2022-10-16T14:16:40;3.22;;;0.40;;
36457;SDS011;22480;50.546;12.292;2022-10-16T14:19:45;0.93;;;0.40;;
36457;SDS011;22480;50.546;12.292;2022-10-16T14:22:00;0.90;;;0.60;;
36457;SDS011;22480;50.546;12.292;2022-10-16T14:24:31;1.77;;;0.50;;
36457;SDS011;22480;50.546;12.292;2022-10-16T14:26:59;1.00;;;0.43;;
36457;SDS011;22480;50.546;12.292;2022-10-16T14:29:26;0.40;;;0.40;;
36457;SDS011;22480;50.546;12.292;2022-10-16T14:36:52;1.08;;;0.50;;
36457;SDS011;22480;50.546;12.292;2022-10-16T14:39:22;2.40;;;0.55;;
36457;SDS011;22480;50.546;12.292;2022-10-16T14:41:52;1.05;;;0.60;;
36457;SDS011;22480;50.546;12.292;2022-10-16T14:44:23;4.88;;;0.90;;
36457;SDS011;22480;50.546;12.292;2022-10-16T14:46:56;0.70;;;0.60;;
36457;SDS011;22480;50.546;12.292;2022-10-16T14:49:22;1.33;;;0.75;;
36457;SDS011;22480;50.546;12.292;2022-10-16T14:51:49;2.58;;;1.50;;
36457;SDS011;22480;50.546;12.292;2022-10-16T14:54:16;2.03;;;0.80;;
36457;SDS011;22480;50.546;12.292;2022-10-16T14:56:56;1.58;;;0.70;;
36457;SDS011;22480;50.546;12.292;2022-10-16T15:01:57;1.25;;;0.60;;
36457;SDS011;22480;50.546;12.292;2022-10-16T15:04:23;2.47;;;1.00;;
36457;SDS011;22480;50.546;12.292;2022-10-16T15:06:49;1.02;;;0.50;;
36457;SDS011;22480;50.546;12.292;2022-10-16T15:09:14;4.72;;;0.70;;
36457;SDS011;22480;50.546;12.292;2022-10-16T15:11:41;1.77;;;0.80;;
36457;SDS011;22480;50.546;12.292;2022-10-16T15:14:10;2.90;;;0.60;;
36457;SDS011;22480;50.546;12.292;2022-10-16T15:16:37;2.03;;;0.80;;
36457;SDS011;22480;50.546;12.292;2022-10-16T15:19:03;1.40;;;0.70;;
36457;SDS011;22480;50.546;12.292;2022-10-16T15:21:30;3.10;;;0.98;;
36457;SDS011;22480;50.546;12.292;2022-10-16T15:23:57;2.88;;;0.88;;
36457;SDS011;22480;50.546;12.292;2022-10-16T15:26:24;3.88;;;1.08;;
36457;SDS011;22480;50.546;12.292;2022-10-16T15:28:51;2.75;;;1.48;;
36457;SDS011;22480;50.546;12.292;2022-10-16T15:31:17;1.83;;;1.13;;
36457;SDS011;22480;50.546;12.292;2022-10-16T15:33:43;4.47;;;1.90;;
36457;SDS011;22480;50.546;12.292;2022-10-16T15:36:12;3.03;;;2.00;;
36457;SDS011;22480;50.546;12.292;2022-10-16T15:38:39;3.03;;;1.52;;
36457;SDS011;22480;50.546;12.292;2022-10-16T15:41:04;2.92;;;1.85;;
36457;SDS011;22480;50.546;12.292;2022-10-16T15:43:30;3.40;;;1.98;;
36457;SDS011;22480;50.546;12.292;2022-10-16T15:48:30;2.10;;;1.50;;
36457;SDS011;22480;50.546;12.292;2022-10-16T15:50:56;2.65;;;1.73;;
36457;SDS011;22480;50.546;12.292;2022-10-16T15:53:22;3.00;;;1.50;;
36457;SDS011;22480;50.546;12.292;2022-10-16T15:55:48;1.55;;;1.05;;
36457;SDS011;22480;50.546;12.292;2022-10-16T15:58:14;2.70;;;1.00;;
36457;SDS011;22480;50.546;12.292;2022-10-16T16:00:40;2.80;;;1.30;;
36457;SDS011;22480;50.546;12.292;2022-10-16T16:03:05;4.20;;;1.45;;
36457;SDS011;22480;50.546;12.292;2022-10-16T16:05:31;2.15;;;1.80;;
36457;SDS011;22480;50.546;12.292;2022-10-16T16:08:00;2.00;;;1.42;;
36457;SDS011;22480;50.546;12.292;2022-10-16T16:10:26;4.72;;;2.45;;
36457;SDS011;22480;50.546;12.292;2022-10-16T16:12:52;3.15;;;1.77;;
36457;SDS011;22480;50.546;12.292;2022-10-16T16:15:19;2.95;;;2.03;;
36457;SDS011;22480;50.546;12.292;2022-10-16T16:17:46;7.00;;;1.88;;
36457;SDS011;22480;50.546;12.292;2022-10-16T16:20:12;3.05;;;2.30;;
36457;SDS011;22480;50.546;12.292;2022-10-16T16:22:38;3.40;;;2.63;;
36457;SDS011;22480;50.546;12.292;2022-10-16T16:25:04;7.85;;;3.55;;
36457;SDS011;22480;50.546;12.292;2022-10-16T16:27:30;4.60;;;2.35;;
36457;SDS011;22480;50.546;12.292;2022-10-16T16:29:58;2.85;;;2.35;;
36457;SDS011;22480;50.546;12.292;2022-10-16T16:32:25;6.32;;;2.58;;
36457;SDS011;22480;50.546;12.292;2022-10-16T16:34:51;3.38;;;3.08;;
36457;SDS011;22480;50.546;12.292;2022-10-16T16:37:17;12.43;;;7.90;;
36457;SDS011;22480;50.546;12.292;2022-10-16T16:39:43;8.52;;;6.13;;
36457;SDS011;22480;50.546;12.292;2022-10-16T16:42:09;7.15;;;6.03;;
36457;SDS011;22480;50.546;12.292;2022-10-16T16:44:35;7.55;;;6.22;;
36457;SDS011;22480;50.546;12.292;2022-10-16T16:47:02;11.32;;;9.35;;
36457;SDS011;22480;50.546;12.292;2022-10-16T16:49:29;11.98;;;10.75;;
36457;SDS011;22480;50.546;12.292;2022-10-16T16:51:54;8.75;;;7.53;;